createdAt,value
2023-04-07T00:04:54.588Z,6.42
2023-04-07T00:09:55.856Z,6.42
2023-04-07T00:14:54.290Z,6.45
2023-04-07T00:19:53.393Z,6.41
2023-04-07T00:24:53.013Z,6.31
2023-04-07T00:29:55.602Z,6.36
2023-04-07T00:34:53.900Z,6.35
2023-04-07T00:39:52.486Z,6.20
2023-04-07T00:44:51.956Z,6.35
2023-04-07T00:49:50.966Z,6.23
2023-04-07T00:54:50.023Z,6.29
2023-04-07T00:59:50.735Z,6.26
2023-04-07T01:04:56.762Z,6.54
2023-04-07T01:10:07.083Z,6.46
2023-04-07T01:15:23.450Z,6.78
2023-04-07T01:20:27.749Z,6.74
2023-04-07T01:26:12.393Z,6.82
2023-04-07T01:31:14.278Z,6.77
2023-04-07T01:36:14.941Z,6.58
2023-04-07T01:41:18.083Z,6.55
2023-04-07T01:46:20.270Z,6.83
2023-04-07T01:51:20.912Z,6.57
2023-04-07T01:56:21.383Z,6.64
2023-04-07T02:01:24.220Z,6.70
2023-04-07T02:06:29.687Z,6.52
2023-04-07T02:11:29.851Z,6.62
2023-04-07T02:16:34.707Z,6.49
2023-04-07T02:21:34.936Z,6.32
2023-04-07T02:26:35.897Z,6.41
2023-04-07T02:31:38.078Z,6.28
2023-04-07T02:36:36.686Z,6.32
2023-04-07T02:41:42.338Z,6.15
2023-04-07T02:46:42.561Z,6.40
2023-04-07T02:51:44.335Z,6.32
2023-04-07T02:56:43.963Z,6.30
2023-04-07T03:01:43.773Z,6.27
2023-04-07T03:06:42.997Z,5.90
2023-04-07T03:11:48.114Z,6.15
2023-04-07T03:16:47.359Z,6.00
2023-04-07T03:21:49.261Z,6.07
2023-04-07T03:26:47.511Z,6.00
2023-04-07T03:31:55.677Z,5.98
2023-04-07T03:36:56.247Z,6.18
2023-04-07T03:41:56.508Z,6.23
2023-04-07T03:46:58.822Z,6.04
2023-04-07T03:51:59.071Z,6.13
2023-04-07T03:56:57.628Z,6.03
2023-04-07T04:01:56.512Z,6.06
2023-04-07T04:06:55.563Z,6.17
2023-04-07T04:12:23.999Z,6.16
2023-04-07T04:17:35.068Z,6.25
2023-04-07T04:22:36.162Z,6.41
2023-04-07T04:27:37.365Z,6.49
2023-04-07T04:32:42.595Z,6.65
2023-04-07T04:37:43.292Z,6.62
2023-04-07T04:42:43.426Z,6.62
2023-04-07T04:47:44.789Z,6.79
2023-04-07T04:52:44.888Z,6.80
2023-04-07T04:57:51.947Z,6.94
2023-04-07T05:02:58.609Z,7.13
2023-04-07T05:07:59.148Z,7.08
2023-04-07T05:13:06.289Z,7.04
2023-04-07T05:18:04.823Z,7.01
2023-04-07T05:23:03.560Z,6.97
2023-04-07T05:28:08.972Z,7.48
2023-04-07T05:33:10.321Z,7.02
2023-04-07T05:38:14.465Z,7.25
2023-04-07T05:43:13.623Z,6.76
2023-04-07T05:48:12.474Z,7.10
2023-04-07T05:53:16.506Z,7.05
2023-04-07T05:58:23.231Z,7.14
2023-04-07T06:03:25.675Z,7.02
2023-04-07T06:08:31.106Z,7.10
2023-04-07T06:13:29.869Z,7.26
2023-04-07T06:18:28.728Z,7.44
2023-04-07T06:23:27.731Z,7.60
2023-04-07T06:28:29.146Z,7.51
2023-04-07T06:33:29.629Z,7.24
2023-04-07T06:38:31.183Z,7.52
2023-04-07T06:43:31.610Z,7.53
2023-04-07T06:48:39.110Z,7.83
2023-04-07T06:53:38.520Z,7.79
2023-04-07T06:58:37.891Z,7.57
2023-04-07T07:03:38.743Z,7.82
2023-04-07T07:08:37.888Z,7.85
2023-04-07T07:13:39.253Z,7.56
2023-04-07T07:18:38.156Z,7.73
2023-04-07T07:23:35.663Z,7.72
2023-04-07T07:28:36.668Z,7.80
2023-04-07T07:33:35.803Z,8.03
2023-04-07T07:38:36.047Z,7.86
2023-04-07T07:43:37.533Z,7.94
2023-04-07T07:48:36.448Z,7.85
2023-04-07T07:53:37.818Z,7.96
2023-04-07T07:58:36.327Z,8.17
2023-04-07T08:03:37.431Z,8.47
2023-04-07T08:08:37.518Z,8.68
2023-04-07T08:13:43.530Z,8.78
2023-04-07T08:18:42.082Z,8.85
2023-04-07T08:23:47.241Z,8.87
2023-04-07T08:28:47.050Z,8.93
2023-04-07T08:33:54.460Z,8.92
2023-04-07T08:38:53.304Z,9.17
2023-04-07T08:43:54.411Z,9.57
2023-04-07T08:48:55.003Z,9.59
2023-04-07T08:53:54.385Z,9.66
2023-04-07T08:58:54.208Z,9.59
2023-04-07T09:03:54.988Z,9.79
2023-04-07T09:08:55.872Z,9.89
2023-04-07T09:13:54.065Z,10.11
2023-04-07T09:18:56.068Z,10.13
2023-04-07T09:23:54.665Z,10.20
2023-04-07T09:28:56.284Z,10.56
2023-04-07T09:33:56.764Z,10.84
2023-04-07T09:38:55.626Z,10.53
2023-04-07T09:43:58.602Z,10.69
2023-04-07T09:49:11.739Z,10.93
2023-04-07T09:54:09.921Z,10.82
2023-04-07T09:59:14.937Z,10.80
2023-04-07T10:04:14.329Z,10.80
2023-04-07T10:09:14.602Z,11.12
2023-04-07T10:14:25.924Z,11.18
2023-04-07T10:19:37.012Z,11.12
2023-04-07T10:24:54.928Z,11.36
2023-04-07T10:29:58.578Z,11.42
2023-04-07T10:34:58.328Z,11.46
2023-04-07T10:40:34.819Z,11.35
2023-04-07T10:45:52.640Z,11.79
2023-04-07T10:51:32.570Z,12.04
2023-04-07T10:57:06.053Z,12.08
2023-04-07T11:02:26.030Z,11.72
2023-04-07T11:07:50.097Z,12.10
2023-04-07T11:13:08.768Z,12.70
2023-04-07T11:18:10.366Z,12.83
2023-04-07T11:23:12.390Z,12.31
2023-04-07T11:28:14.775Z,12.38
2023-04-07T11:33:25.550Z,12.91
2023-04-07T11:38:31.523Z,13.12
2023-04-07T11:43:31.368Z,12.81
2023-04-07T11:48:35.959Z,13.13
2023-04-07T11:53:38.335Z,13.03
2023-04-07T11:58:44.629Z,13.32
2023-04-07T12:04:04.591Z,13.75
2023-04-07T12:09:03.037Z,13.84
2023-04-07T12:14:04.119Z,14.10
2023-04-07T12:19:07.740Z,14.55
2023-04-07T12:24:11.553Z,14.72
2023-04-07T12:29:12.671Z,14.53
2023-04-07T12:34:13.613Z,14.27
2023-04-07T12:39:13.332Z,13.89
2023-04-07T12:44:13.633Z,13.62
2023-04-07T12:49:13.528Z,13.22
2023-04-07T12:54:14.846Z,13.24
2023-04-07T12:59:14.093Z,13.29
2023-04-07T13:04:12.613Z,13.36
2023-04-07T13:09:12.305Z,12.84
2023-04-07T13:14:13.241Z,13.07
2023-04-07T13:19:17.403Z,13.05
2023-04-07T13:24:16.024Z,12.63
2023-04-07T13:29:14.164Z,12.77
2023-04-07T13:34:16.081Z,12.50
2023-04-07T13:39:18.872Z,12.26
2023-04-07T13:44:18.665Z,12.50
2023-04-07T13:49:22.796Z,12.38
2023-04-07T13:54:25.706Z,12.31
2023-04-07T13:59:26.922Z,12.28
2023-04-07T14:04:26.201Z,12.17
2023-04-07T14:09:24.902Z,12.47
2023-04-07T14:14:24.833Z,12.35
2023-04-07T14:19:27.559Z,11.82
2023-04-07T14:24:27.948Z,11.72
2023-04-07T14:29:26.997Z,11.79
2023-04-07T14:34:27.578Z,12.17
2023-04-07T14:39:30.966Z,11.55
2023-04-07T14:44:33.638Z,11.53
2023-04-07T14:49:32.336Z,11.28
2023-04-07T14:54:30.526Z,11.12
2023-04-07T14:59:32.161Z,11.04
2023-04-07T15:04:32.188Z,10.62
2023-04-07T15:09:36.831Z,10.97
2023-04-07T15:14:34.563Z,10.71
2023-04-07T15:19:35.730Z,10.99
2023-04-07T15:24:34.647Z,10.66
2023-04-07T15:29:35.716Z,10.59
2023-04-07T15:34:35.717Z,10.42
2023-04-07T15:39:33.312Z,10.73
2023-04-07T15:44:39.881Z,10.51
2023-04-07T15:49:42.428Z,10.51
2023-04-07T15:54:40.562Z,10.63
2023-04-07T15:59:38.786Z,10.63
2023-04-07T16:04:38.903Z,10.42
2023-04-07T16:09:36.486Z,10.09
2023-04-07T16:14:40.601Z,9.83
2023-04-07T16:19:40.572Z,9.92
2023-04-07T16:24:40.629Z,9.73
2023-04-07T16:29:40.581Z,9.66
2023-04-07T16:34:38.050Z,9.65
2023-04-07T16:39:35.985Z,9.61
2023-04-07T16:44:36.874Z,9.45
2023-04-07T16:49:38.600Z,9.58
2023-04-07T16:54:40.804Z,9.75
2023-04-07T16:59:43.113Z,9.43
2023-04-07T17:04:42.402Z,9.37
2023-04-07T17:09:42.157Z,9.30
2023-04-07T17:14:39.708Z,9.49
2023-04-07T17:19:39.220Z,9.22
2023-04-07T17:24:37.382Z,9.34
2023-04-07T17:29:38.419Z,9.20
2023-04-07T17:34:36.214Z,9.28
2023-04-07T17:39:35.776Z,9.31
2023-04-07T17:44:37.653Z,9.30
2023-04-07T17:49:36.087Z,9.21
2023-04-07T17:54:39.564Z,9.30
2023-04-07T17:59:37.247Z,9.29
2023-04-07T18:04:44.077Z,9.32
2023-04-07T18:09:43.211Z,9.26
2023-04-07T18:14:47.491Z,9.39
2023-04-07T18:19:49.159Z,9.37
2023-04-07T18:24:49.330Z,9.26
2023-04-07T18:29:47.700Z,9.14
2023-04-07T18:34:50.652Z,9.13
2023-04-07T18:39:54.969Z,9.69
2023-04-07T18:44:54.158Z,9.43
2023-04-07T18:49:53.884Z,9.29
2023-04-07T18:54:56.278Z,9.50
2023-04-07T18:59:54.974Z,9.51
2023-04-07T19:04:55.109Z,9.48
2023-04-07T19:09:56.065Z,9.32
2023-04-07T19:14:56.006Z,9.31
2023-04-07T19:19:55.124Z,9.39
2023-04-07T19:24:52.941Z,9.47
2023-04-07T19:29:51.564Z,9.48
2023-04-07T19:34:50.605Z,9.39
2023-04-07T19:40:01.678Z,9.30
2023-04-07T19:45:03.197Z,9.35
2023-04-07T19:50:01.715Z,9.77
2023-04-07T19:55:02.371Z,9.31
2023-04-07T20:00:03.419Z,9.23
2023-04-07T20:05:00.924Z,9.13
2023-04-07T20:09:59.302Z,9.04
2023-04-07T20:15:00.049Z,9.10
2023-04-07T20:19:58.935Z,9.28
2023-04-07T20:24:59.187Z,9.07
2023-04-07T20:29:57.287Z,9.02
2023-04-07T20:34:58.274Z,9.20
2023-04-07T20:39:57.055Z,9.05
2023-04-07T20:45:02.412Z,9.13
2023-04-07T20:50:01.061Z,9.17
2023-04-07T20:54:58.558Z,9.26
2023-04-07T20:59:57.503Z,9.01
2023-04-07T21:04:56.886Z,9.04
2023-04-07T21:09:55.743Z,9.05
2023-04-07T21:14:54.212Z,9.00
2023-04-07T21:19:52.403Z,9.06
2023-04-07T21:24:49.958Z,8.95
2023-04-07T21:29:48.353Z,9.23
2023-04-07T21:34:46.834Z,8.92
2023-04-07T21:39:44.346Z,9.00
2023-04-07T21:44:43.750Z,9.18
2023-04-07T21:49:48.545Z,9.20
2023-04-07T21:54:47.082Z,9.24
2023-04-07T21:59:46.225Z,9.09
2023-04-07T22:04:44.986Z,9.29
2023-04-07T22:09:44.282Z,9.05
2023-04-07T22:14:45.215Z,9.17
2023-04-07T22:19:44.389Z,8.87
2023-04-07T22:24:42.271Z,8.98
2023-04-07T22:29:42.063Z,9.23
2023-04-07T22:34:39.614Z,8.82
2023-04-07T22:39:37.295Z,8.94
2023-04-07T22:44:35.713Z,8.70
2023-04-07T22:49:34.693Z,8.92
2023-04-07T22:54:33.452Z,8.99
2023-04-07T22:59:34.683Z,9.30
2023-04-07T23:04:33.135Z,9.37
2023-04-07T23:09:32.512Z,8.99
2023-04-07T23:14:33.024Z,9.05
2023-04-07T23:19:32.359Z,9.13
2023-04-07T23:24:30.532Z,9.05
2023-04-07T23:29:29.571Z,9.31
2023-04-07T23:34:28.556Z,9.27
2023-04-07T23:39:30.630Z,8.90
2023-04-07T23:44:30.512Z,9.17
2023-04-07T23:49:32.219Z,9.23
2023-04-07T23:54:30.299Z,9.01
2023-04-07T23:59:29.053Z,8.87
